Time;durP1;ratioP1;P1;durP2;ratioP2;P2;SDS_P1;SDS_P2;PMS_P1;PMS_P2;Temp;Humidity;BMP_temperature;BMP_pressure;BME280_temperature;BME280_humidity;BME280_pressure;Samples;Min_cycle;Max_cycle;Signal;HPM_P1;HPM_P2
2022/03/22 00:00:46;;;;;;;10.15;7.38;;;20.30;57.00;;;;;;4924942;28;87870;-72
2022/03/22 00:03:14;;;;;;;10.82;7.55;;;20.30;56.90;;;;;;4908713;28;88222;-68
2022/03/22 00:05:42;;;;;;;9.18;7.10;;;20.30;56.90;;;;;;4921830;28;87930;-69
2022/03/22 00:08:09;;;;;;;9.10;6.60;;;20.30;57.00;;;;;;4914958;28;90901;-68
2022/03/22 00:10:36;;;;;;;8.93;6.72;;;20.30;57.20;;;;;;4919438;28;89613;-69
2022/03/22 00:13:05;;;;;;;9.80;7.57;;;20.30;57.00;;;;;;4915525;28;87056;-71
2022/03/22 00:15:33;;;;;;;9.13;6.53;;;20.30;57.10;;;;;;4914856;28;89473;-70
2022/03/22 00:17:59;;;;;;;9.48;7.03;;;20.30;57.10;;;;;;4911237;28;88391;-69
2022/03/22 00:20:25;;;;;;;8.88;6.57;;;20.30;57.20;;;;;;4916517;28;87307;-70
2022/03/22 00:22:51;;;;;;;10.00;7.22;;;20.20;57.00;;;;;;4917494;28;87324;-70
2022/03/22 00:25:17;;;;;;;9.27;6.95;;;20.30;57.30;;;;;;4917115;28;87638;-70
2022/03/22 00:27:57;;;;;;;9.68;6.57;;;20.20;57.10;;;;;;4912005;28;88107;-69
2022/03/22 00:30:32;;;;;;;8.60;6.45;;;20.20;57.20;;;;;;4922346;28;88471;-69
2022/03/22 00:33:00;;;;;;;7.60;6.60;;;20.20;57.00;;;;;;4916120;28;87902;-68
2022/03/22 00:35:28;;;;;;;8.40;6.68;;;20.20;57.10;;;;;;4915713;28;88403;-71
2022/03/22 00:37:56;;;;;;;8.35;6.88;;;20.20;57.10;;;;;;4919809;28;88299;-69
2022/03/22 00:40:24;;;;;;;8.30;6.68;;;20.20;56.90;;;;;;4923241;28;90063;-71
2022/03/22 00:42:52;;;;;;;8.93;7.10;;;20.20;56.90;;;;;;4915682;28;88202;-71
2022/03/22 00:45:20;;;;;;;8.43;6.65;;;20.20;56.90;;;;;;4918445;28;88038;-68
2022/03/22 00:47:48;;;;;;;8.05;6.72;;;20.20;57.00;;;;;;4920786;28;87757;-69
2022/03/22 00:50:16;;;;;;;8.68;7.00;;;20.20;56.90;;;;;;4920850;28;88852;-70
2022/03/22 00:52:43;;;;;;;10.05;6.78;;;20.20;56.80;;;;;;4917488;28;87774;-71
2022/03/22 00:55:12;;;;;;;9.05;7.20;;;20.20;56.90;;;;;;4916951;28;87687;-71
2022/03/22 00:57:39;;;;;;;7.97;6.23;;;20.20;56.90;;;;;;4920865;28;88571;-70
2022/03/22 01:00:11;;;;;;;8.30;6.53;;;20.20;56.80;;;;;;4924465;28;88789;-68
2022/03/22 01:02:45;;;;;;;9.45;6.60;;;20.20;56.70;;;;;;4920491;28;87710;-68
2022/03/22 01:05:15;;;;;;;8.57;6.10;;;20.20;56.90;;;;;;4915378;28;87719;-70
2022/03/22 01:07:42;;;;;;;9.90;7.03;;;20.20;56.80;;;;;;4920894;28;91836;-70
2022/03/22 01:10:10;;;;;;;8.52;6.22;;;20.10;56.70;;;;;;4914848;28;91117;-72
2022/03/22 01:12:38;;;;;;;7.72;6.22;;;20.10;56.70;;;;;;4922317;28;87843;-72
2022/03/22 01:15:10;;;;;;;8.65;6.38;;;20.10;56.60;;;;;;4914849;28;88419;-69
2022/03/22 01:17:39;;;;;;;8.55;6.57;;;20.10;56.60;;;;;;4918761;28;87983;-69
2022/03/22 01:20:06;;;;;;;8.70;6.53;;;20.10;56.60;;;;;;4914119;28;87904;-69
2022/03/22 01:22:32;;;;;;;7.22;5.90;;;20.10;56.60;;;;;;4914366;28;89191;-68
2022/03/22 01:24:59;;;;;;;8.55;6.88;;;20.10;56.70;;;;;;4923088;28;86937;-71
2022/03/22 01:27:26;;;;;;;9.00;7.07;;;20.10;56.50;;;;;;4920928;28;88038;-69
2022/03/22 01:29:52;;;;;;;7.60;6.38;;;20.10;56.50;;;;;;4920150;28;88332;-69
2022/03/22 01:32:18;;;;;;;8.27;6.57;;;20.10;56.50;;;;;;4924510;28;87374;-68
2022/03/22 01:34:44;;;;;;;8.10;6.70;;;20.10;56.50;;;;;;4916903;28;87279;-71
2022/03/22 01:37:10;;;;;;;9.93;6.88;;;20.10;56.40;;;;;;4916605;28;87866;-69
2022/03/22 01:39:36;;;;;;;7.85;6.57;;;20.10;56.60;;;;;;4920386;28;87821;-68
2022/03/22 01:42:03;;;;;;;9.05;7.10;;;20.10;56.30;;;;;;4920796;28;87969;-70
2022/03/22 01:44:29;;;;;;;8.25;7.28;;;20.10;57.10;;;;;;4916613;28;88871;-68
2022/03/22 01:47:03;;;;;;;9.38;6.68;;;20.00;56.30;;;;;;4920635;28;89044;-71
2022/03/22 01:49:29;;;;;;;9.40;6.72;;;20.10;56.40;;;;;;4918844;28;90579;-68
2022/03/22 01:51:56;;;;;;;8.30;6.70;;;20.00;56.30;;;;;;4917010;28;87718;-68
2022/03/22 01:54:22;;;;;;;12.68;6.95;;;20.00;56.20;;;;;;4915780;28;87627;-68
2022/03/22 01:56:49;;;;;;;7.95;6.32;;;20.00;56.20;;;;;;4924118;28;88195;-68
2022/03/22 01:59:15;;;;;;;8.70;6.78;;;20.00;56.30;;;;;;4921990;28;87749;-68
2022/03/22 02:07:21;;;;;;;7.72;6.68;;;20.00;56.20;;;;;;4922417;28;87411;-69
2022/03/22 02:09:46;;;;;;;9.13;6.88;;;20.00;56.20;;;;;;4915259;28;87976;-70
2022/03/22 02:12:12;;;;;;;8.00;6.50;;;20.00;56.30;;;;;;4918446;28;89047;-70
2022/03/22 02:14:38;;;;;;;7.63;6.82;;;20.00;56.20;;;;;;4913453;28;87532;-69
2022/03/22 02:17:08;;;;;;;9.23;6.45;;;20.00;56.20;;;;;;4913689;28;87840;-68
2022/03/22 02:19:37;;;;;;;9.02;6.93;;;20.00;56.10;;;;;;4922163;28;88086;-68
2022/03/22 02:22:07;;;;;;;8.68;6.85;;;20.00;56.10;;;;;;4911412;28;88246;-68
2022/03/22 02:24:33;;;;;;;8.77;6.65;;;19.90;56.00;;;;;;4910402;28;89905;-69
2022/03/22 02:26:59;;;;;;;7.70;6.57;;;19.90;56.00;;;;;;4912344;28;89433;-69
2022/03/22 02:29:24;;;;;;;7.22;6.50;;;19.90;56.10;;;;;;4918695;28;87843;-71
2022/03/22 02:31:53;;;;;;;8.23;6.65;;;19.90;56.10;;;;;;4919586;28;86961;-70
2022/03/22 02:34:19;;;;;;;10.38;6.72;;;19.90;56.00;;;;;;4910291;28;88771;-70
2022/03/22 02:36:45;;;;;;;8.13;6.22;;;19.90;56.00;;;;;;4923266;28;89315;-69
2022/03/22 02:39:10;;;;;;;8.18;6.80;;;19.90;56.00;;;;;;4922231;28;88726;-68
2022/03/22 02:41:36;;;;;;;8.05;6.72;;;19.90;56.00;;;;;;4921145;28;87043;-68
2022/03/22 02:44:02;;;;;;;7.50;6.45;;;19.90;56.20;;;;;;4922696;28;87580;-68
2022/03/22 02:46:28;;;;;;;7.25;5.90;;;19.90;56.10;;;;;;4918119;28;88057;-68
2022/03/22 02:48:54;;;;;;;7.60;6.72;;;19.90;56.10;;;;;;4918304;28;87054;-71
2022/03/22 02:51:20;;;;;;;8.27;6.75;;;19.90;56.10;;;;;;4919108;28;87449;-68
2022/03/22 02:53:46;;;;;;;8.27;6.65;;;19.90;56.20;;;;;;4923923;28;87621;-69
2022/03/22 02:56:12;;;;;;;8.10;6.70;;;19.90;56.10;;;;;;4918638;28;88351;-69
2022/03/22 02:58:38;;;;;;;7.35;6.13;;;19.90;56.00;;;;;;4911737;28;90754;-69
2022/03/22 03:01:04;;;;;;;7.03;6.30;;;19.90;56.10;;;;;;4911920;28;89001;-71
2022/03/22 03:03:30;;;;;;;7.72;6.78;;;19.90;56.00;;;;;;4917382;28;88837;-69
2022/03/22 03:05:56;;;;;;;8.73;6.75;;;19.80;55.90;;;;;;4921717;28;87478;-68
2022/03/22 03:08:26;;;;;;;8.50;6.88;;;19.80;55.90;;;;;;4919343;28;88048;-71
2022/03/22 03:10:52;;;;;;;7.80;6.22;;;19.80;55.90;;;;;;4917797;28;87850;-70
2022/03/22 03:13:18;;;;;;;8.45;6.57;;;19.80;55.70;;;;;;4918270;28;88210;-69
2022/03/22 03:15:44;;;;;;;6.85;6.10;;;19.80;55.80;;;;;;4917690;28;87686;-69
2022/03/22 03:18:10;;;;;;;6.38;5.65;;;19.80;55.80;;;;;;4917474;28;86889;-68
2022/03/22 03:20:36;;;;;;;6.90;5.78;;;19.80;55.80;;;;;;4916765;28;87319;-69
2022/03/22 03:23:02;;;;;;;9.05;6.25;;;19.80;55.80;;;;;;4916492;28;87318;-68
2022/03/22 03:25:28;;;;;;;7.80;6.63;;;19.80;55.80;;;;;;4918463;28;89293;-69
2022/03/22 03:27:54;;;;;;;6.88;6.10;;;19.80;55.70;;;;;;4912016;28;91226;-71
2022/03/22 03:30:19;;;;;;;7.55;6.20;;;19.80;55.90;;;;;;4921097;28;87756;-68
2022/03/22 03:32:45;;;;;;;7.38;6.57;;;19.80;55.80;;;;;;4919348;28;87587;-68
2022/03/22 03:35:11;;;;;;;7.38;6.43;;;19.80;55.80;;;;;;4915931;28;88174;-69
2022/03/22 03:37:37;;;;;;;7.47;6.38;;;19.80;55.70;;;;;;4920946;28;88790;-69
2022/03/22 03:40:04;;;;;;;7.80;6.72;;;19.80;55.80;;;;;;4919456;28;87048;-68
2022/03/22 03:42:30;;;;;;;7.68;6.40;;;19.70;55.80;;;;;;4921559;28;89483;-68
2022/03/22 03:47:40;;;;;;;7.75;6.30;;;19.80;56.30;;;;;;4919659;28;87180;-71
2022/03/22 03:50:07;;;;;;;7.80;6.38;;;19.70;55.70;;;;;;4917487;28;89777;-68
2022/03/22 03:52:35;;;;;;;7.93;6.43;;;19.70;55.60;;;;;;4912683;28;89992;-71
2022/03/22 03:55:02;;;;;;;7.85;6.70;;;19.70;55.70;;;;;;4920169;28;88459;-71
2022/03/22 03:57:28;;;;;;;7.55;6.38;;;19.70;55.60;;;;;;4912504;28;91792;-69
2022/03/22 03:59:56;;;;;;;6.95;6.07;;;19.70;55.60;;;;;;4920101;28;87056;-69
2022/03/22 04:02:21;;;;;;;6.72;5.82;;;19.70;55.60;;;;;;4919560;28;87828;-69
2022/03/22 04:04:51;;;;;;;6.15;5.50;;;19.70;55.60;;;;;;4919006;28;88593;-70
2022/03/22 04:07:19;;;;;;;8.27;6.22;;;19.70;55.60;;;;;;4914495;28;87947;-69
2022/03/22 04:09:45;;;;;;;8.02;6.50;;;19.70;55.70;;;;;;4913405;28;86975;-68
2022/03/22 04:12:12;;;;;;;6.78;6.05;;;19.70;55.60;;;;;;4934586;28;89630;-68
2022/03/22 04:14:38;;;;;;;6.57;5.97;;;19.70;55.60;;;;;;4916808;28;88355;-72
2022/03/22 04:17:04;;;;;;;7.35;6.40;;;19.70;55.60;;;;;;4920584;28;87802;-68
2022/03/22 04:19:30;;;;;;;6.90;6.20;;;19.60;55.60;;;;;;4915469;28;87112;-71
2022/03/22 04:21:56;;;;;;;7.35;6.20;;;19.70;55.60;;;;;;4913612;28;86928;-68
2022/03/22 04:24:22;;;;;;;8.00;6.13;;;19.60;55.60;;;;;;4914103;28;88336;-69
2022/03/22 04:26:48;;;;;;;7.90;6.40;;;19.60;55.50;;;;;;4916949;28;88229;-68
2022/03/22 04:34:45;;;;;;;8.27;6.28;;;19.60;55.50;;;;;;4919332;28;87899;-68
2022/03/22 04:37:12;;;;;;;7.38;6.45;;;19.60;55.50;;;;;;4926200;28;89102;-68
2022/03/22 04:39:40;;;;;;;6.82;5.82;;;19.60;55.60;;;;;;4919996;28;88330;-69
2022/03/22 04:42:06;;;;;;;7.68;6.88;;;19.60;55.40;;;;;;4919530;28;87963;-68
2022/03/22 04:44:33;;;;;;;8.38;6.53;;;19.60;55.40;;;;;;4914107;28;88390;-69
2022/03/22 04:46:59;;;;;;;6.75;6.05;;;19.60;55.30;;;;;;4919509;28;88081;-68
2022/03/22 04:49:26;;;;;;;7.63;6.38;;;19.60;55.70;;;;;;4925821;28;87960;-69
2022/03/22 04:57:22;;;;;;;6.63;5.88;;;19.60;55.60;;;;;;4919487;28;87045;-68
2022/03/22 04:59:48;;;;;;;7.28;6.05;;;19.60;55.70;;;;;;4917773;28;87495;-69
2022/03/22 05:02:15;;;;;;;8.00;6.22;;;19.60;55.70;;;;;;4922393;28;87589;-68
2022/03/22 05:04:40;;;;;;;7.78;6.70;;;19.60;55.70;;;;;;4920104;28;88945;-70
2022/03/22 05:07:06;;;;;;;6.25;5.65;;;19.60;55.80;;;;;;4919730;28;88921;-68
2022/03/22 05:09:32;;;;;;;8.05;6.28;;;19.60;55.70;;;;;;4919983;28;87641;-68
2022/03/22 05:11:59;;;;;;;7.40;6.40;;;19.60;55.70;;;;;;4923465;28;87028;-69
2022/03/22 05:14:24;;;;;;;7.07;6.20;;;19.50;55.80;;;;;;4922145;28;87660;-69
2022/03/22 05:16:50;;;;;;;6.60;5.93;;;19.50;55.80;;;;;;4912536;28;87894;-68
2022/03/22 05:19:17;;;;;;;6.63;5.97;;;19.50;55.70;;;;;;4913257;28;87423;-70
2022/03/22 05:21:43;;;;;;;6.40;5.70;;;19.50;55.70;;;;;;4919222;28;87139;-69
2022/03/22 05:24:09;;;;;;;7.68;6.30;;;19.60;55.70;;;;;;4923855;28;88142;-70
2022/03/22 05:26:35;;;;;;;9.48;6.75;;;19.50;55.90;;;;;;4922444;28;87975;-69
2022/03/22 05:29:04;;;;;;;6.88;5.90;;;19.50;55.00;;;;;;4933215;28;89148;-69
2022/03/22 05:31:34;;;;;;;7.57;6.32;;;19.50;55.30;;;;;;4922768;28;90105;-70
2022/03/22 05:34:00;;;;;;;7.80;5.72;;;19.50;55.70;;;;;;4923184;28;88081;-69
2022/03/22 05:36:26;;;;;;;7.30;6.10;;;19.50;55.30;;;;;;4918724;28;87754;-69
2022/03/22 05:38:52;;;;;;;7.07;6.38;;;19.50;55.50;;;;;;4919436;28;87938;-69
2022/03/22 05:41:18;;;;;;;7.13;6.38;;;19.50;55.50;;;;;;4918497;28;87083;-70
2022/03/22 05:43:44;;;;;;;7.72;6.90;;;19.50;55.80;;;;;;4918960;28;87981;-68
2022/03/22 05:46:10;;;;;;;7.05;6.35;;;19.50;56.20;;;;;;4919501;28;87942;-68
2022/03/22 05:48:39;;;;;;;10.52;7.32;;;19.60;56.10;;;;;;4919452;28;88342;-68
2022/03/22 05:51:05;;;;;;;10.13;7.17;;;19.50;56.40;;;;;;4924965;28;87997;-68
2022/03/22 05:53:31;;;;;;;8.95;6.90;;;19.60;56.70;;;;;;4918823;28;89071;-69
2022/03/22 05:55:56;;;;;;;10.52;7.53;;;19.50;55.90;;;;;;4925273;28;88303;-70
2022/03/22 05:58:22;;;;;;;10.57;7.50;;;19.50;56.30;;;;;;4918152;28;87543;-68
2022/03/22 06:00:48;;;;;;;9.38;6.45;;;19.50;56.10;;;;;;4912319;28;88607;-71
2022/03/22 06:03:14;;;;;;;9.52;7.20;;;19.50;55.60;;;;;;4919353;28;87916;-67
2022/03/22 06:05:40;;;;;;;9.88;6.95;;;19.50;55.90;;;;;;4924475;28;88037;-69
2022/03/22 06:08:08;;;;;;;7.43;6.63;;;19.50;55.90;;;;;;4916877;28;87707;-68
2022/03/22 06:10:34;;;;;;;7.13;6.43;;;19.50;55.70;;;;;;4918624;28;87739;-67
2022/03/22 06:13:00;;;;;;;7.88;6.88;;;19.50;55.70;;;;;;4917642;28;89315;-71
2022/03/22 06:15:28;;;;;;;7.25;6.55;;;19.40;55.50;;;;;;4923617;28;89184;-67
2022/03/22 06:17:56;;;;;;;9.98;7.05;;;19.50;55.50;;;;;;4919345;28;89768;-68
2022/03/22 06:20:27;;;;;;;7.25;6.55;;;19.50;55.30;;;;;;4915896;28;87554;-67
2022/03/22 06:22:54;;;;;;;8.50;5.82;;;19.50;55.00;;;;;;4913217;28;88122;-68
2022/03/22 06:25:20;;;;;;;11.20;6.65;;;19.50;54.90;;;;;;4914204;28;88224;-67
2022/03/22 06:27:48;;;;;;;8.30;7.32;;;19.50;55.20;;;;;;4919219;28;87921;-70
2022/03/22 06:30:15;;;;;;;8.25;7.38;;;19.50;55.50;;;;;;4918129;28;87735;-69
2022/03/22 06:32:43;;;;;;;8.15;7.35;;;19.50;55.40;;;;;;4912807;28;87519;-68
2022/03/22 06:35:10;;;;;;;8.15;6.93;;;19.50;55.10;;;;;;4920990;28;88534;-69
2022/03/22 06:37:37;;;;;;;8.75;7.70;;;19.50;54.90;;;;;;4918312;28;87174;-69
2022/03/22 06:40:03;;;;;;;8.65;6.82;;;19.50;54.90;;;;;;4916557;28;89794;-72
2022/03/22 06:42:29;;;;;;;7.80;7.03;;;19.50;54.50;;;;;;4912800;28;92223;-71
2022/03/22 06:44:55;;;;;;;7.05;6.35;;;19.50;54.40;;;;;;4919571;28;88123;-67
2022/03/22 06:47:20;;;;;;;8.55;7.47;;;19.60;54.60;;;;;;4917320;28;87568;-68
2022/03/22 06:49:46;;;;;;;8.85;7.45;;;19.60;54.60;;;;;;4917061;28;87906;-68
2022/03/22 06:52:11;;;;;;;8.75;6.72;;;19.60;54.60;;;;;;4915666;28;89560;-70
2022/03/22 06:54:38;;;;;;;8.32;7.20;;;19.60;54.70;;;;;;4917296;28;87492;-69
2022/03/22 06:57:05;;;;;;;9.85;7.38;;;19.70;54.20;;;;;;4917238;28;87803;-67
2022/03/22 06:59:30;;;;;;;7.30;6.50;;;19.70;54.00;;;;;;4921045;28;87035;-68
2022/03/22 07:01:56;;;;;;;8.43;6.47;;;19.70;54.80;;;;;;4923365;28;88015;-69
2022/03/22 07:04:21;;;;;;;7.13;6.28;;;19.70;55.00;;;;;;4914697;28;87383;-68
2022/03/22 07:06:47;;;;;;;7.40;6.00;;;19.70;55.30;;;;;;4913300;28;88983;-69
2022/03/22 07:09:13;;;;;;;6.32;5.72;;;19.70;55.30;;;;;;4920681;28;88074;-70
2022/03/22 07:11:49;;;;;;;7.85;6.70;;;19.70;55.60;;;;;;4916763;28;88302;-69
2022/03/22 07:14:16;;;;;;;19.17;6.65;;;19.70;55.40;;;;;;4912561;28;91671;-68
2022/03/22 07:16:42;;;;;;;17.50;8.13;;;19.70;55.60;;;;;;4917740;28;87446;-71
2022/03/22 07:19:08;;;;;;;37.67;12.05;;;19.80;55.40;;;;;;4921521;28;87885;-69
2022/03/22 07:21:33;;;;;;;15.25;7.45;;;19.80;55.00;;;;;;4919829;28;88249;-71
2022/03/22 07:23:59;;;;;;;19.70;8.50;;;19.80;56.10;;;;;;4911996;28;90737;-70
2022/03/22 07:26:25;;;;;;;28.60;10.82;;;19.80;56.20;;;;;;4915921;28;87418;-70
2022/03/22 07:28:50;;;;;;;34.20;11.45;;;19.80;55.70;;;;;;4916210;28;90380;-70
2022/03/22 07:31:16;;;;;;;31.13;10.63;;;19.80;55.30;;;;;;4919780;28;89364;-72
2022/03/22 07:33:42;;;;;;;26.95;10.98;;;19.80;55.40;;;;;;4917124;28;89142;-73
2022/03/22 07:36:07;;;;;;;26.38;11.13;;;19.80;55.90;;;;;;4923161;28;87462;-70
2022/03/22 07:38:33;;;;;;;30.70;11.60;;;19.80;56.10;;;;;;4915849;28;87841;-70
2022/03/22 07:40:59;;;;;;;27.63;10.68;;;19.80;56.20;;;;;;4917543;28;87848;-70
2022/03/22 07:43:24;;;;;;;25.55;11.73;;;19.80;56.10;;;;;;4918279;28;87723;-70
2022/03/22 07:45:50;;;;;;;32.67;12.98;;;19.80;56.30;;;;;;4915379;28;87894;-71
2022/03/22 07:48:16;;;;;;;32.92;11.52;;;19.80;56.30;;;;;;4914473;28;89916;-71
2022/03/22 07:53:26;;;;;;;28.13;10.60;;;19.80;56.50;;;;;;4915131;28;87464;-70
2022/03/22 07:55:51;;;;;;;22.85;10.68;;;19.80;56.60;;;;;;4881982;28;88302;-70
2022/03/22 07:58:17;;;;;;;24.67;11.27;;;19.80;56.80;;;;;;4928807;28;87919;-70
2022/03/22 08:00:43;;;;;;;28.98;10.07;;;19.90;56.90;;;;;;4919394;28;88230;-71
2022/03/22 08:03:12;;;;;;;27.20;11.13;;;19.90;56.80;;;;;;4921757;28;89571;-70
2022/03/22 08:05:39;;;;;;;29.05;11.32;;;19.90;56.70;;;;;;4918917;28;87882;-68
2022/03/22 08:08:05;;;;;;;27.98;11.32;;;19.90;57.20;;;;;;4925360;28;87979;-68
2022/03/22 08:10:32;;;;;;;24.80;11.38;;;19.90;56.60;;;;;;4921013;28;88136;-67
2022/03/22 08:13:02;;;;;;;29.80;11.05;;;20.00;56.60;;;;;;4926120;28;87393;-68
2022/03/22 08:15:28;;;;;;;28.67;11.90;;;19.90;56.60;;;;;;4905926;28;87973;-71
2022/03/22 08:17:54;;;;;;;25.55;11.18;;;19.90;56.70;;;;;;4919873;28;87881;-69
2022/03/22 08:20:20;;;;;;;24.05;10.93;;;20.00;56.70;;;;;;4918375;28;90375;-70
2022/03/22 08:22:46;;;;;;;26.20;12.07;;;20.00;56.70;;;;;;4919158;28;89420;-69
2022/03/22 08:25:12;;;;;;;23.70;11.20;;;19.90;56.60;;;;;;4933873;28;88914;-68
2022/03/22 08:27:37;;;;;;;27.90;11.27;;;20.00;56.70;;;;;;4925631;28;87988;-72
2022/03/22 08:30:06;;;;;;;26.67;10.40;;;19.90;56.50;;;;;;4920350;28;87976;-69
2022/03/22 08:32:32;;;;;;;24.80;10.38;;;19.90;56.50;;;;;;4925378;28;88384;-68
2022/03/22 08:34:58;;;;;;;28.73;11.02;;;20.00;57.30;;;;;;4911473;28;87460;-70
2022/03/22 08:37:23;;;;;;;25.27;10.27;;;20.00;56.70;;;;;;4919328;28;87080;-71
2022/03/22 08:39:49;;;;;;;27.05;11.07;;;19.90;56.60;;;;;;4918226;28;87782;-73
2022/03/22 08:42:14;;;;;;;23.20;10.65;;;20.00;56.80;;;;;;4919945;28;88022;-68
2022/03/22 08:44:40;;;;;;;22.48;10.57;;;19.90;56.60;;;;;;4923567;28;88236;-70
2022/03/22 08:47:07;;;;;;;25.67;10.98;;;19.90;56.80;;;;;;4920811;28;87885;-69
2022/03/22 08:49:33;;;;;;;21.08;11.07;;;20.00;56.70;;;;;;4933773;28;90517;-72
2022/03/22 08:52:00;;;;;;;24.00;10.80;;;19.90;56.80;;;;;;4921859;28;88608;-69
2022/03/22 08:54:25;;;;;;;24.20;10.75;;;19.90;56.70;;;;;;4923727;28;87495;-69
2022/03/22 08:56:51;;;;;;;25.42;11.50;;;20.00;57.00;;;;;;4920675;28;87491;-71
2022/03/22 08:59:16;;;;;;;19.70;9.68;;;19.90;56.70;;;;;;4922433;28;88505;-68
2022/03/22 09:01:42;;;;;;;21.63;10.10;;;20.00;56.70;;;;;;4922533;28;88204;-69
2022/03/22 09:06:52;;;;;;;24.05;10.77;;;20.00;56.60;;;;;;4919922;28;87564;-69
2022/03/22 09:09:17;;;;;;;24.08;11.10;;;19.90;56.60;;;;;;4916267;28;89415;-69
2022/03/22 09:11:43;;;;;;;22.73;9.75;;;20.00;56.60;;;;;;4920384;28;88938;-70
2022/03/22 09:14:10;;;;;;;19.77;9.95;;;19.90;54.10;;;;;;4917601;28;86949;-69
2022/03/22 09:16:37;;;;;;;21.63;9.35;;;19.90;54.20;;;;;;4915600;28;87283;-69
2022/03/22 09:19:03;;;;;;;22.58;9.57;;;19.90;55.00;;;;;;4920244;28;88268;-69
2022/03/22 09:21:29;;;;;;;24.33;10.52;;;19.90;56.30;;;;;;4919742;28;87928;-69
2022/03/22 09:23:55;;;;;;;24.42;10.20;;;19.90;57.30;;;;;;4917871;28;88302;-69
2022/03/22 09:26:21;;;;;;;25.45;11.13;;;20.00;57.80;;;;;;4918042;28;89166;-70
2022/03/22 09:28:52;;;;;;;24.33;10.20;;;20.00;57.70;;;;;;4919110;28;90397;-72
2022/03/22 09:31:19;;;;;;;22.15;9.85;;;20.00;58.10;;;;;;4922828;28;87849;-72
2022/03/22 09:33:44;;;;;;;29.90;10.70;;;20.00;58.30;;;;;;4921731;28;88483;-70
2022/03/22 09:36:10;;;;;;;19.85;10.02;;;20.00;58.80;;;;;;4915955;28;87773;-71
2022/03/22 09:38:37;;;;;;;19.02;9.80;;;20.00;59.10;;;;;;4918171;28;88086;-69
2022/03/22 09:41:05;;;;;;;25.40;9.70;;;20.00;58.90;;;;;;4918910;28;90526;-69
2022/03/22 09:43:33;;;;;;;21.13;9.65;;;20.00;58.90;;;;;;4921365;28;87659;-69
2022/03/22 09:46:00;;;;;;;26.75;11.00;;;20.00;58.50;;;;;;4914033;28;90364;-69
2022/03/22 09:48:29;;;;;;;22.35;9.73;;;20.00;58.30;;;;;;4921232;28;88194;-69
2022/03/22 09:53:40;;;;;;;18.90;9.50;;;20.00;58.00;;;;;;4918893;28;88695;-69
2022/03/22 09:56:07;;;;;;;24.55;9.95;;;20.00;57.70;;;;;;4918711;28;87346;-69
2022/03/22 09:58:33;;;;;;;23.10;10.05;;;20.00;57.90;;;;;;4911934;28;89175;-70
2022/03/22 10:00:59;;;;;;;27.25;10.60;;;20.00;58.20;;;;;;4917682;28;89399;-69
2022/03/22 10:03:25;;;;;;;19.73;9.98;;;20.00;58.00;;;;;;4921981;28;87198;-71
2022/03/22 10:06:02;;;;;;;19.13;9.55;;;20.00;58.10;;;;;;4914812;28;90120;-68
2022/03/22 10:08:28;;;;;;;21.10;10.27;;;20.10;58.10;;;;;;4921764;28;90812;-71
2022/03/22 10:11:00;;;;;;;22.42;9.52;;;20.10;58.40;;;;;;4917469;28;87829;-69
2022/03/22 10:13:27;;;;;;;18.00;9.73;;;20.10;58.40;;;;;;4924659;28;87179;-69
2022/03/22 10:16:04;;;;;;;18.83;8.93;;;20.00;58.20;;;;;;4923789;28;87732;-70
2022/03/22 10:18:34;;;;;;;22.40;10.57;;;20.10;59.20;;;;;;4912870;28;90699;-71
2022/03/22 10:21:02;;;;;;;22.75;10.23;;;20.10;58.30;;;;;;4917507;28;87595;-69
2022/03/22 10:23:30;;;;;;;18.17;10.43;;;20.00;57.60;;;;;;4919912;28;88927;-69
2022/03/22 10:26:07;;;;;;;21.23;10.30;;;20.10;57.90;;;;;;4916506;28;88218;-71
2022/03/22 10:28:34;;;;;;;24.98;10.20;;;20.00;57.90;;;;;;4919863;28;88602;-71
2022/03/22 10:30:59;;;;;;;20.40;10.45;;;20.10;57.80;;;;;;4919584;28;88331;-72
2022/03/22 10:33:25;;;;;;;20.15;10.43;;;20.10;58.00;;;;;;4913466;28;87365;-72
2022/03/22 10:35:51;;;;;;;19.00;9.57;;;20.10;58.60;;;;;;4917316;28;87516;-70
2022/03/22 10:38:19;;;;;;;23.65;10.13;;;20.10;58.40;;;;;;4918367;28;88144;-69
2022/03/22 10:40:47;;;;;;;21.05;11.00;;;20.10;58.70;;;;;;4913996;28;89942;-68
2022/03/22 10:43:15;;;;;;;21.00;10.02;;;20.10;58.70;;;;;;4915247;28;87973;-69
2022/03/22 10:45:54;;;;;;;24.83;10.23;;;20.10;58.40;;;;;;4918211;28;87947;-72
2022/03/22 10:48:27;;;;;;;26.27;10.85;;;20.10;58.60;;;;;;4916182;28;89089;-69
2022/03/22 10:50:57;;;;;;;20.45;10.40;;;20.10;58.50;;;;;;4917965;28;88694;-69
2022/03/22 10:53:25;;;;;;;20.17;10.98;;;20.10;59.10;;;;;;4921210;28;88112;-70
2022/03/22 10:55:51;;;;;;;18.42;10.48;;;20.10;59.30;;;;;;4916343;28;89733;-69
2022/03/22 10:58:25;;;;;;;25.60;10.63;;;20.10;59.50;;;;;;4921190;28;87882;-69
2022/03/22 11:00:52;;;;;;;18.33;10.00;;;20.10;59.80;;;;;;4917641;28;87935;-71
2022/03/22 11:03:18;;;;;;;19.35;10.02;;;20.10;59.80;;;;;;4917841;28;87910;-72
2022/03/22 11:05:53;;;;;;;18.48;10.10;;;20.10;59.90;;;;;;4919321;28;87058;-69
2022/03/22 11:08:25;;;;;;;27.30;10.68;;;20.10;60.10;;;;;;4919444;28;88223;-70
2022/03/22 11:10:54;;;;;;;20.05;9.32;;;20.10;60.00;;;;;;4913683;28;88421;-70
2022/03/22 11:13:23;;;;;;;21.87;9.17;;;20.10;60.10;;;;;;4917530;28;88147;-72
2022/03/22 11:15:51;;;;;;;18.40;9.25;;;20.10;59.90;;;;;;4919813;28;88047;-69
2022/03/22 11:18:18;;;;;;;21.25;10.43;;;20.10;60.10;;;;;;4911791;28;88982;-73
2022/03/22 11:20:51;;;;;;;20.17;9.73;;;20.10;59.80;;;;;;4915923;28;88988;-69
2022/03/22 11:23:25;;;;;;;17.80;9.25;;;20.10;60.10;;;;;;4917393;28;87544;-70
2022/03/22 11:25:50;;;;;;;17.83;9.82;;;20.10;60.40;;;;;;4920142;28;87355;-69
2022/03/22 11:28:19;;;;;;;18.92;9.70;;;20.10;60.60;;;;;;4917752;28;88641;-69
2022/03/22 11:30:47;;;;;;;20.42;9.95;;;20.10;60.50;;;;;;4917187;28;91139;-69
2022/03/22 11:36:11;;;;;;;21.17;9.88;;;20.10;60.40;;;;;;4915523;28;87046;-69
2022/03/22 11:38:41;;;;;;;18.92;9.27;;;20.10;60.20;;;;;;4915320;28;91300;-69
2022/03/22 11:44:19;;;;;;;18.05;9.15;;;20.10;59.90;;;;;;4917354;28;87318;-71
2022/03/22 11:46:46;;;;;;;18.35;9.52;;;20.10;60.60;;;;;;4917179;28;87817;-71
2022/03/22 11:49:19;;;;;;;18.25;9.50;;;20.10;60.70;;;;;;4917502;28;89023;-69
2022/03/22 11:51:54;;;;;;;16.02;8.38;;;20.10;60.40;;;;;;4916221;28;87954;-71
2022/03/22 11:54:21;;;;;;;19.60;8.95;;;20.10;60.10;;;;;;4910914;28;87749;-70
2022/03/22 11:56:58;;;;;;;15.20;8.93;;;20.10;60.90;;;;;;4915927;28;87367;-68
2022/03/22 11:59:25;;;;;;;17.85;9.35;;;20.10;60.10;;;;;;4917362;28;87759;-71
2022/03/22 12:02:03;;;;;;;18.30;9.20;;;20.10;59.90;;;;;;4917547;28;86941;-69
2022/03/22 12:04:38;;;;;;;19.30;9.27;;;20.10;59.70;;;;;;4919349;28;88868;-67
2022/03/22 12:07:05;;;;;;;14.93;9.27;;;20.10;59.80;;;;;;4917819;28;88055;-70
2022/03/22 12:09:30;;;;;;;15.82;9.70;;;20.10;59.50;;;;;;4909036;28;91142;-70
2022/03/22 12:11:58;;;;;;;16.85;9.00;;;20.10;59.70;;;;;;4914493;28;88029;-69
2022/03/22 12:14:30;;;;;;;19.48;9.57;;;20.10;59.80;;;;;;4919411;28;88455;-71
2022/03/22 12:16:59;;;;;;;19.05;9.45;;;20.00;59.70;;;;;;4916616;28;87326;-69
2022/03/22 12:19:30;;;;;;;21.60;10.13;;;20.10;59.50;;;;;;4918706;28;87717;-68
2022/03/22 12:21:56;;;;;;;19.35;9.45;;;20.10;59.80;;;;;;4914215;28;91200;-69
2022/03/22 12:24:23;;;;;;;15.50;8.45;;;20.10;59.70;;;;;;4916988;28;87675;-68
2022/03/22 12:26:52;;;;;;;20.27;9.25;;;20.10;59.80;;;;;;4922155;28;88101;-67
2022/03/22 12:29:18;;;;;;;17.58;9.65;;;20.10;60.00;;;;;;4918072;28;89786;-69
2022/03/22 12:31:51;;;;;;;27.98;10.52;;;20.10;60.00;;;;;;4916368;28;88721;-67
2022/03/22 12:34:18;;;;;;;17.60;10.15;;;20.10;59.60;;;;;;4915676;28;87613;-68
2022/03/22 12:36:44;;;;;;;19.75;11.05;;;20.10;60.40;;;;;;4911510;28;87364;-68
2022/03/22 12:39:13;;;;;;;20.15;10.85;;;20.10;60.40;;;;;;4909655;28;88218;-70
2022/03/22 12:41:39;;;;;;;15.68;10.23;;;20.10;60.30;;;;;;4915053;28;90537;-73
2022/03/22 12:44:06;;;;;;;17.25;11.10;;;20.10;61.10;;;;;;4915183;28;88161;-73
2022/03/22 12:46:32;;;;;;;23.63;11.20;;;20.10;61.10;;;;;;4914327;28;88950;-70
2022/03/22 12:48:59;;;;;;;19.25;11.95;;;20.10;60.90;;;;;;4921500;28;87804;-71
2022/03/22 12:51:25;;;;;;;20.77;12.10;;;20.10;61.20;;;;;;4920457;28;88351;-70
2022/03/22 12:53:53;;;;;;;20.05;13.95;;;20.10;60.80;;;;;;4919120;28;88814;-73
2022/03/22 12:56:20;;;;;;;19.50;13.25;;;20.10;61.70;;;;;;4920057;28;88623;-69
2022/03/22 12:58:46;;;;;;;19.48;12.70;;;20.10;61.60;;;;;;4918086;28;88056;-73
2022/03/22 13:01:12;;;;;;;18.40;12.18;;;20.10;61.60;;;;;;4920649;28;87903;-69
2022/03/22 13:03:38;;;;;;;17.65;11.80;;;20.10;61.00;;;;;;4922946;28;88022;-69
2022/03/22 13:06:06;;;;;;;15.82;11.40;;;20.10;60.50;;;;;;4920452;28;90228;-69
2022/03/22 13:11:27;;;;;;;17.52;11.02;;;20.10;60.70;;;;;;4914903;28;86767;-73
2022/03/22 13:16:39;;;;;;;14.90;11.68;;;20.10;60.90;;;;;;4914810;28;87200;-70